Time,TemperatureF,DewpointF,PressureIn,WindDirection,WindDirectionDegrees,WindSpeedMPH,WindSpeedGustMPH,Humidity,HourlyPrecipIn,Conditions,Clouds,dailyrainin,SoftwareType,DateUTC
2013-05-04 00:14:00,43.3,36.0,30.28,South,183,0.0,0.0,76,0.00,,,0.00,weatherlink.com 1.10,2013-05-04 04:14:00,
2013-05-04 00:29:00,43.1,36.0,30.28,South,183,0.0,0.0,77,0.00,,,0.00,weatherlink.com 1.10,2013-05-04 04:29:00,
2013-05-04 00:44:00,43.0,36.0,30.28,South,183,0.0,0.0,77,0.00,,,0.00,weatherlink.com 1.10,2013-05-04 04:44:00,
2013-05-04 00:59:00,42.5,36.0,30.28,South,183,0.0,0.0,78,0.00,,,0.00,weatherlink.com 1.10,2013-05-04 04:59:00,
2013-05-04 01:14:00,42.5,36.0,30.28,South,183,0.0,0.0,78,0.00,,,0.00,weatherlink.com 1.10,2013-05-04 05:14:00,
2013-05-04 01:29:00,42.2,36.0,30.27,South,183,0.0,0.0,79,0.00,,,0.00,weatherlink.com 1.10,2013-05-04 05:29:00,
2013-05-04 01:44:00,41.6,36.0,30.27,South,183,0.0,0.0,80,0.00,,,0.00,weatherlink.com 1.10,2013-05-04 05:44:00,
2013-05-04 01:59:00,41.1,36.0,30.26,South,183,0.0,0.0,82,0.00,,,0.00,weatherlink.com 1.10,2013-05-04 05:59:00,
2013-05-04 02:14:00,41.3,37.0,30.25,South,183,0.0,0.0,83,0.00,,,0.00,weatherlink.com 1.10,2013-05-04 06:14:00,
2013-05-04 02:29:00,41.4,37.0,30.25,South,183,0.0,0.0,84,0.00,,,0.00,weatherlink.com 1.10,2013-05-04 06:29:00,
2013-05-04 02:44:00,41.4,37.0,30.25,South,183,0.0,0.0,85,0.00,,,0.00,weatherlink.com 1.10,2013-05-04 06:44:00,
2013-05-04 02:59:00,41.0,37.0,30.25,South,183,0.0,0.0,86,0.00,,,0.00,weatherlink.com 1.10,2013-05-04 06:59:00,
2013-05-04 03:14:00,40.9,37.0,30.25,South,183,0.0,0.0,86,0.00,,,0.00,weatherlink.com 1.10,2013-05-04 07:14:00,
2013-05-04 03:29:00,41.0,37.0,30.25,South,183,0.0,0.0,86,0.00,,,0.00,weatherlink.com 1.10,2013-05-04 07:29:00,
2013-05-04 03:44:00,40.7,37.0,30.24,South,183,0.0,0.0,86,0.00,,,0.00,weatherlink.com 1.10,2013-05-04 07:44:00,
2013-05-04 03:59:00,40.2,37.0,30.25,South,183,0.0,0.0,87,0.00,,,0.00,weatherlink.com 1.10,2013-05-04 07:59:00,
2013-05-04 04:14:00,40.0,37.0,30.24,South,183,0.0,0.0,88,0.00,,,0.00,weatherlink.com 1.10,2013-05-04 08:14:00,
2013-05-04 04:29:00,40.0,37.0,30.25,South,183,0.0,0.0,90,0.00,,,0.00,weatherlink.com 1.10,2013-05-04 08:29:00,
2013-05-04 04:44:00,39.8,37.0,30.24,South,183,0.0,0.0,89,0.00,,,0.00,weatherlink.com 1.10,2013-05-04 08:44:00,
2013-05-04 04:59:00,39.6,37.0,30.24,South,183,0.0,0.0,91,0.00,,,0.00,weatherlink.com 1.10,2013-05-04 08:59:00,
2013-05-04 05:14:00,40.2,38.0,30.24,South,183,0.0,0.0,91,0.00,,,0.00,weatherlink.com 1.10,2013-05-04 09:14:00,
2013-05-04 05:29:00,40.3,38.0,30.24,South,183,0.0,0.0,91,0.00,,,0.00,weatherlink.com 1.10,2013-05-04 09:29:00,
2013-05-04 05:44:00,40.7,38.0,30.25,South,183,0.0,2.0,89,0.00,,,0.00,weatherlink.com 1.10,2013-05-04 09:44:00,
2013-05-04 05:59:00,40.6,38.0,30.25,South,183,0.0,0.0,89,0.00,,,0.00,weatherlink.com 1.10,2013-05-04 09:59:00,
2013-05-04 06:14:00,40.8,38.0,30.25,South,183,0.0,0.0,89,0.00,,,0.00,weatherlink.com 1.10,2013-05-04 10:14:00,
2013-05-04 06:29:00,40.9,38.0,30.25,South,183,0.0,0.0,89,0.00,,,0.00,weatherlink.com 1.10,2013-05-04 10:29:00,
2013-05-04 06:44:00,41.8,38.0,30.25,South,183,0.0,1.0,86,0.00,,,0.00,weatherlink.com 1.10,2013-05-04 10:44:00,
2013-05-04 06:59:00,42.5,38.0,30.26,South,183,0.0,0.0,85,0.00,,,0.00,weatherlink.com 1.10,2013-05-04 10:59:00,
2013-05-04 07:14:00,43.9,38.0,30.26,South,183,0.0,0.0,81,0.00,,,0.00,weatherlink.com 1.10,2013-05-04 11:14:00,
2013-05-04 07:29:00,45.8,38.0,30.25,South,183,2.0,3.0,75,0.00,,,0.00,weatherlink.com 1.10,2013-05-04 11:29:00,
2013-05-04 08:00:00,51.3,38.0,30.25,South,186,1.0,3.0,60,0.00,,,0.00,weatherlink.com 1.10,2013-05-04 12:00:00,
2013-05-04 08:15:00,52.9,38.0,30.26,South,190,2.0,4.0,58,0.00,,,0.00,weatherlink.com 1.10,2013-05-04 12:15:00,
2013-05-04 08:30:00,53.9,39.0,30.26,SW,217,3.0,4.0,58,0.00,,,0.00,weatherlink.com 1.10,2013-05-04 12:30:00,
2013-05-04 08:45:00,54.2,40.0,30.25,South,170,1.0,4.0,59,0.00,,,0.00,weatherlink.com 1.10,2013-05-04 12:45:00,
2013-05-04 09:00:00,55.7,40.0,30.26,SSW,198,4.0,7.0,55,0.00,,,0.00,weatherlink.com 1.10,2013-05-04 13:00:00,
2013-05-04 09:15:00,56.3,42.0,30.26,ENE,61,2.0,7.0,59,0.00,,,0.00,weatherlink.com 1.10,2013-05-04 13:15:00,
2013-05-04 09:30:00,57.0,42.0,30.25,SSW,192,0.0,7.0,57,0.00,,,0.00,weatherlink.com 1.10,2013-05-04 13:30:00,
2013-05-04 09:45:00,57.7,42.0,30.25,NW,322,1.0,6.0,56,0.00,,,0.00,weatherlink.com 1.10,2013-05-04 13:45:00,
2013-05-04 10:00:00,58.8,42.0,30.25,SE,145,2.0,8.0,54,0.00,,,0.00,weatherlink.com 1.10,2013-05-04 14:00:00,
2013-05-04 10:15:00,59.3,42.0,30.25,NNE,12,4.0,8.0,54,0.00,,,0.00,weatherlink.com 1.10,2013-05-04 14:15:00,
2013-05-04 10:30:00,59.7,42.0,30.24,ENE,68,5.0,6.0,52,0.00,,,0.00,weatherlink.com 1.10,2013-05-04 14:30:00,
2013-05-04 10:45:00,59.3,42.0,30.24,ESE,107,3.0,8.0,53,0.00,,,0.00,weatherlink.com 1.10,2013-05-04 14:45:00,
2013-05-04 11:00:00,58.7,41.0,30.24,NNE,13,3.0,16.0,53,0.00,,,0.00,weatherlink.com 1.10,2013-05-04 15:00:00,
2013-05-04 11:15:00,59.0,40.0,30.24,North,5,4.0,7.0,49,0.00,,,0.00,weatherlink.com 1.10,2013-05-04 15:15:00,
2013-05-04 11:30:00,59.8,40.0,30.23,ENE,71,3.0,8.0,49,0.00,,,0.00,weatherlink.com 1.10,2013-05-04 15:30:00,
2013-05-04 11:45:00,60.0,43.0,30.23,ENE,58,3.0,11.0,53,0.00,,,0.00,weatherlink.com 1.10,2013-05-04 15:45:00,
2013-05-04 12:00:00,60.8,39.0,30.22,NNW,344,4.0,8.0,44,0.00,,,0.00,weatherlink.com 1.10,2013-05-04 16:00:00,
2013-05-04 12:15:00,60.5,37.0,30.22,NNE,32,2.0,11.0,42,0.00,,,0.00,weatherlink.com 1.10,2013-05-04 16:15:00,
2013-05-04 12:30:00,61.0,39.0,30.22,ENE,74,2.0,8.0,45,0.00,,,0.00,weatherlink.com 1.10,2013-05-04 16:30:00,
2013-05-04 12:45:00,61.5,40.0,30.21,NNE,28,4.0,9.0,45,0.00,,,0.00,weatherlink.com 1.10,2013-05-04 16:45:00,
2013-05-04 13:00:00,61.3,39.0,30.21,NE,55,3.0,14.0,44,0.00,,,0.00,weatherlink.com 1.10,2013-05-04 17:00:00,
2013-05-04 13:16:00,62.2,41.0,30.20,South,185,1.0,7.0,46,0.00,,,0.00,weatherlink.com 1.10,2013-05-04 17:16:00,
2013-05-04 13:31:00,62.6,42.0,30.20,West,271,1.0,5.0,47,0.00,,,0.00,weatherlink.com 1.10,2013-05-04 17:31:00,
2013-05-04 13:46:00,62.7,40.0,30.19,SE,134,4.0,8.0,44,0.00,,,0.00,weatherlink.com 1.10,2013-05-04 17:46:00,
2013-05-04 14:01:00,62.5,39.0,30.19,NNE,15,5.0,11.0,42,0.00,,,0.00,weatherlink.com 1.10,2013-05-04 18:01:00,
2013-05-04 14:16:00,62.7,38.0,30.18,NNE,19,4.0,11.0,41,0.00,,,0.00,weatherlink.com 1.10,2013-05-04 18:16:00,
2013-05-04 14:31:00,63.5,42.0,30.18,SSE,151,2.0,11.0,45,0.00,,,0.00,weatherlink.com 1.10,2013-05-04 18:31:00,
2013-05-04 14:46:00,63.5,39.0,30.17,North,350,1.0,10.0,40,0.00,,,0.00,weatherlink.com 1.10,2013-05-04 18:46:00,
2013-05-04 15:01:00,63.4,39.0,30.17,NE,48,3.0,5.0,40,0.00,,,0.00,weatherlink.com 1.10,2013-05-04 19:01:00,
2013-05-04 15:16:00,64.2,41.0,30.16,South,190,3.0,11.0,43,0.00,,,0.00,weatherlink.com 1.10,2013-05-04 19:16:00,
2013-05-04 15:31:00,64.5,40.0,30.16,South,176,8.0,8.0,40,0.00,,,0.00,weatherlink.com 1.10,2013-05-04 19:31:00,
2013-05-04 15:46:00,66.0,38.0,30.15,NNE,25,4.0,8.0,36,0.00,,,0.00,weatherlink.com 1.10,2013-05-04 19:46:00,
2013-05-04 16:01:00,66.0,38.0,30.15,NW,310,1.0,11.0,36,0.00,,,0.00,weatherlink.com 1.10,2013-05-04 20:01:00,
2013-05-04 16:16:00,66.6,39.0,30.15,SSE,155,3.0,15.0,36,0.00,,,0.00,weatherlink.com 1.10,2013-05-04 20:16:00,
2013-05-04 16:31:00,65.8,41.0,30.14,East,98,2.0,9.0,41,0.00,,,0.00,weatherlink.com 1.10,2013-05-04 20:31:00,
2013-05-04 16:46:00,66.2,41.0,30.15,NE,55,3.0,8.0,40,0.00,,,0.00,weatherlink.com 1.10,2013-05-04 20:46:00,
2013-05-04 17:01:00,66.7,40.0,30.14,NNE,30,7.0,7.0,38,0.00,,,0.00,weatherlink.com 1.10,2013-05-04 21:01:00,
2013-05-04 17:16:00,65.9,37.0,30.14,ESE,115,0.0,8.0,35,0.00,,,0.00,weatherlink.com 1.10,2013-05-04 21:16:00,
2013-05-04 17:31:00,64.8,37.0,30.14,South,180,4.0,11.0,36,0.00,,,0.00,weatherlink.com 1.10,2013-05-04 21:31:00,
2013-05-04 17:46:00,65.0,39.0,30.14,NNE,16,2.0,6.0,38,0.00,,,0.00,weatherlink.com 1.10,2013-05-04 21:46:00,
2013-05-04 18:01:00,65.3,38.0,30.14,WSW,240,3.0,6.0,37,0.00,,,0.00,weatherlink.com 1.10,2013-05-04 22:01:00,
2013-05-04 18:16:00,64.3,37.0,30.14,SSW,209,4.0,5.0,37,0.00,,,0.00,weatherlink.com 1.10,2013-05-04 22:16:00,
2013-05-04 18:31:00,62.6,38.0,30.14,SSW,211,2.0,4.0,41,0.00,,,0.00,weatherlink.com 1.10,2013-05-04 22:31:00,
2013-05-04 18:46:00,61.2,38.0,30.13,South,183,5.0,6.0,43,0.00,,,0.00,weatherlink.com 1.10,2013-05-04 22:46:00,
2013-05-04 19:01:00,60.8,38.0,30.13,SSW,196,1.0,5.0,43,0.00,,,0.00,weatherlink.com 1.10,2013-05-04 23:01:00,
2013-05-04 19:16:00,60.2,37.0,30.14,South,184,1.0,3.0,42,0.00,,,0.00,weatherlink.com 1.10,2013-05-04 23:16:00,
2013-05-04 19:31:00,59.8,38.0,30.13,SW,217,2.0,5.0,44,0.00,,,0.00,weatherlink.com 1.10,2013-05-04 23:31:00,
2013-05-04 19:46:00,58.8,39.0,30.13,South,191,0.0,4.0,48,0.00,,,0.00,weatherlink.com 1.10,2013-05-04 23:46:00,
2013-05-04 20:01:00,57.8,39.0,30.14,South,185,3.0,8.0,49,0.00,,,0.00,weatherlink.com 1.10,2013-05-05 00:01:00,
2013-05-04 20:16:00,57.0,36.0,30.15,SSW,205,3.0,10.0,45,0.00,,,0.00,weatherlink.com 1.10,2013-05-05 00:16:00,
2013-05-04 20:31:00,56.1,33.0,30.15,SSW,205,2.0,9.0,42,0.00,,,0.00,weatherlink.com 1.10,2013-05-05 00:31:00,
2013-05-04 20:46:00,55.0,34.0,30.15,South,189,4.0,7.0,46,0.00,,,0.00,weatherlink.com 1.10,2013-05-05 00:46:00,
2013-05-04 21:01:00,53.5,37.0,30.16,SSE,161,2.0,7.0,55,0.00,,,0.00,weatherlink.com 1.10,2013-05-05 01:01:00,
2013-05-04 21:16:00,51.9,39.0,30.17,South,178,1.0,3.0,62,0.00,,,0.00,weatherlink.com 1.10,2013-05-05 01:16:00,
2013-05-04 21:31:00,50.4,39.0,30.17,South,179,2.0,6.0,66,0.00,,,0.00,weatherlink.com 1.10,2013-05-05 01:31:00,
2013-05-04 21:46:00,49.9,40.0,30.18,SSW,194,3.0,5.0,69,0.00,,,0.00,weatherlink.com 1.10,2013-05-05 01:46:00,
2013-05-04 22:01:00,48.6,40.0,30.18,SSW,194,4.0,4.0,71,0.00,,,0.00,weatherlink.com 1.10,2013-05-05 02:01:00,
2013-05-04 22:16:00,47.8,40.0,30.18,SSW,193,1.0,3.0,74,0.00,,,0.00,weatherlink.com 1.10,2013-05-05 02:16:00,
2013-05-04 22:31:00,47.0,40.0,30.18,South,186,1.0,3.0,76,0.00,,,0.00,weatherlink.com 1.10,2013-05-05 02:31:00,
2013-05-04 22:46:00,46.7,40.0,30.18,South,185,0.0,3.0,78,0.00,,,0.00,weatherlink.com 1.10,2013-05-05 02:46:00,
2013-05-04 23:01:00,46.1,40.0,30.18,South,185,1.0,1.0,79,0.00,,,0.00,weatherlink.com 1.10,2013-05-05 03:01:00,
2013-05-04 23:16:00,45.4,40.0,30.18,South,185,1.0,2.0,80,0.00,,,0.00,weatherlink.com 1.10,2013-05-05 03:16:00,
2013-05-04 23:31:00,44.7,39.0,30.17,South,185,0.0,2.0,80,0.00,,,0.00,weatherlink.com 1.10,2013-05-05 03:31:00,
2013-05-04 23:46:00,44.0,39.0,30.18,South,185,0.0,1.0,81,0.00,,,0.00,weatherlink.com 1.10,2013-05-05 03:46:00,